Terminal Aerodrome Forecast
Issued by NWS

Home | Current Version | Previous Version | Graphics & Text | Print | Product List | Glossary On
Versions: 1 2 3 4 5 6 7 8 9 10 11 12 13
000
FTUS43 KBIS 302300
TAFJMS
TAF
KJMS 302333Z 3100/3124 32006KT P6SM SKC
     FM310400 31003KT P6SM SKC
     FM310900 32003KT P6SM VCFG SKC
     FM311300 35004KT P6SM SKC
     FM311800 36004KT P6SM SCT060=

USA.gov is the U.S. government's official web portal to all federal, state and local government web resources and services.